METAR Analyzer

一覧表示

Hello, Guest. (Login)

ZBAA/PEK  -  北京首都

観測日時
2021-05-15 18:00 (UTC) (21分前)
気温
17
露点
7
湿数
10
相対湿度
51.7%
QNH
1012hPa
推定現地気圧
1007.8hPa
推定海面気圧
1012.0hPa
体感温度
9.1
(無風時)
17.6
HI
16.1
気温前日比
-2
体感温度前日比
-4.6
HI前日比
-3
水平視程
>10000m
鉛直視程
データなし
雲底高度
データなし
V/I
判定不可
RVR
No RVR data
卓越風
4m/s from 300°
ガスト
No gust
降水
弱い雨
その他の天気
NSC
報告なし

ZBAA 151800Z 30004MPS 9999 -RA NSC 17/07 Q1012 NOSIG

ZSPD/PVG  -  上海浦東

観測日時
2021-05-15 18:00 (UTC) (21分前)
気温
25
露点
22
湿数
3
相対湿度
83.5%
QNH
1001hPa
推定現地気圧
1000.5hPa
推定海面気圧
1001.0hPa
体感温度
20.9
(無風時)
25.2
HI
25.7
気温前日比
+2
体感温度前日比
+3.7
HI前日比
+1.9
水平視程
>10000m
鉛直視程
データなし
雲底高度
No dense clouds
V/I
VMC (VFR)
RVR
No RVR data
卓越風
2m/s from 210° (180° ~ 250°)
ガスト
No gust
降水
報告なし
その他の天気
報告なし
報告なし

ZSPD 151800Z 21002MPS 180V250 CAVOK 25/22 Q1001 NOSIG

ZSSS/SHA  -  上海虹橋

観測日時
2021-05-15 18:00 (UTC) (21分前)
気温
27
露点
24
湿数
3
相対湿度
83.7%
QNH
1001hPa
推定現地気圧
1000.6hPa
推定海面気圧
1000.9hPa
体感温度
23.3
(無風時)
26.9
HI
30.1
気温前日比
+3
体感温度前日比
+3.1
HI前日比
+5.2
水平視程
>10000m
鉛直視程
データなし
雲底高度
No dense clouds
V/I
VMC (VFR)
RVR
No RVR data
卓越風
2m/s from 20° (340° ~ 40°)
ガスト
No gust
降水
報告なし
その他の天気
報告なし
少しの積乱雲 @ 3000ft AGL

ZSSS 151800Z 02002MPS 340V040 9999 FEW030CB 27/24 Q1001 NOSIG

ZSAM/XMN  -  アモイ/廈門高崎

観測日時
2021-05-15 18:00 (UTC) (21分前)
気温
27
露点
24
湿数
3
相対湿度
83.7%
QNH
1008hPa
推定現地気圧
1005.8hPa
推定海面気圧
1007.9hPa
体感温度
22.6
(無風時)
26.9
HI
30.1
気温前日比
±0
体感温度前日比
-0.3
HI前日比
-0.8
水平視程
>10000m
鉛直視程
データなし
雲底高度
No dense clouds
V/I
VMC (VFR)
RVR
No RVR data
卓越風
3m/s from 200°
ガスト
No gust
降水
報告なし
その他の天気
報告なし
報告なし

ZSAM 151800Z 20003MPS CAVOK 27/24 Q1008 NOSIG

ZGSZ/SZX  -  深圳宝安

観測日時
2021-05-15 18:00 (UTC) (21分前)
気温
28
露点
26
湿数
2
相対湿度
88.9%
QNH
1008hPa
推定現地気圧
1007.5hPa
推定海面気圧
1008.0hPa
体感温度
23.2
(無風時)
28.1
HI
33.8
気温前日比
±0
体感温度前日比
+0.1
HI前日比
+1.1
水平視程
>10000m
鉛直視程
データなし
雲底高度
No dense clouds
V/I
VMC (VFR)
RVR
No RVR data
卓越風
6m/s from 170°
ガスト
No gust
降水
報告なし
その他の天気
報告なし
散在する雲 @ 2000ft AGL

ZGSZ 151800Z 17006MPS 9999 SCT020 28/26 Q1008 NOSIG

VHHH/HKG  -  香港

観測日時
2021-05-15 18:00 (UTC) (21分前)
気温
29
露点
23
湿数
6
相対湿度
70.1%
QNH
1008hPa
推定現地気圧
1006.9hPa
推定海面気圧
1007.9hPa
体感温度
24
(無風時)
27.5
HI
32.8
気温前日比
±0
体感温度前日比
-0.5
HI前日比
-1.7
水平視程
>10000m
鉛直視程
データなし
雲底高度
No dense clouds
V/I
VMC (VFR)
RVR
No RVR data
卓越風
7kt from 180°
ガスト
No gust
降水
報告なし
その他の天気
報告なし
少しの雲 @ 1500ft AGL / 散在する雲 @ 2800ft AGL

VHHH 151800Z 18007KT 9999 FEW015 SCT028 29/23 Q1008 NOSIG

RCTP/TPE  -  台湾桃園

観測日時
2021-05-15 18:00 (UTC) (21分前)
気温
27
露点
24
湿数
3
相対湿度
83.7%
QNH
1008.5hPa
推定現地気圧
1004.6hPa
推定海面気圧
1008.4hPa
体感温度
22.3
(無風時)
26.9
HI
30.1
気温前日比
+1
体感温度前日比
+1
HI前日比
+3.1
水平視程
>10000m
鉛直視程
データなし
雲底高度
No dense clouds
V/I
VMC (VFR)
RVR
No RVR data
卓越風
7kt from 230°
ガスト
No gust
降水
報告なし
その他の天気
報告なし
少しの雲 @ 1500ft AGL / 散在する雲 @ 3000ft AGL

RCTP 151800Z 23007KT 9999 FEW015 SCT030 27/24 Q1008 NOSIG RMK A2978

RCSS/TSA  -  台北松山

観測日時
2021-05-15 18:00 (UTC) (21分前)
気温
27
露点
26
湿数
1
相対湿度
94.3%
QNH
1008.5hPa
推定現地気圧
1007.9hPa
推定海面気圧
1008.5hPa
体感温度
23.5
(無風時)
27.6
HI
31.9
気温前日比
±0
体感温度前日比
-0.8
HI前日比
±0
水平視程
>10000m
鉛直視程
データなし
雲底高度
2200ft AGL
V/I
VMC (VFR)
RVR
No RVR data
卓越風
5kt from 90°
ガスト
No gust
降水
報告なし
その他の天気
報告なし
少しの雲 @ 1500ft AGL / 隙間のある雲 @ 2200ft AGL

RCSS 151800Z 09005KT 9999 FEW015 BKN022 27/26 Q1008 NOSIG RMK A2978

RCKH/KHH  -  高雄

観測日時
2021-05-15 18:00 (UTC) (21分前)
気温
29
露点
24
湿数
5
相対湿度
74.5%
QNH
1009.1hPa
推定現地気圧
1008.0hPa
推定海面気圧
1009.0hPa
体感温度
23.4
(無風時)
27.9
HI
33.6
気温前日比
+2
体感温度前日比
+0.5
HI前日比
+4.8
水平視程
>10000m
鉛直視程
データなし
雲底高度
No dense clouds
V/I
VMC (VFR)
RVR
No RVR data
卓越風
15kt from 170° (140° ~ 200°)
ガスト
No gust
降水
報告なし
その他の天気
報告なし
少しの雲 @ 1700ft AGL

RCKH 151800Z 17015KT 140V200 9999 FEW017 29/24 Q1009 NOSIG RMK A2980

6.5msec